sensor_id;sensor_type;location;lat;lon;timestamp;temperature;humidity
1614;DHT22;800;48.824;9.346;2023-05-16T00:00:25;18.90;54.80
1614;DHT22;800;48.824;9.346;2023-05-16T00:02:50;18.80;54.90
1614;DHT22;800;48.824;9.346;2023-05-16T00:05:16;18.80;55.00
1614;DHT22;800;48.824;9.346;2023-05-16T00:07:44;18.70;55.10
1614;DHT22;800;48.824;9.346;2023-05-16T00:10:10;18.70;55.20
1614;DHT22;800;48.824;9.346;2023-05-16T00:12:37;18.80;55.40
1614;DHT22;800;48.824;9.346;2023-05-16T00:15:07;18.70;55.30
1614;DHT22;800;48.824;9.346;2023-05-16T00:17:34;18.70;55.40
1614;DHT22;800;48.824;9.346;2023-05-16T00:20:03;18.70;55.50
1614;DHT22;800;48.824;9.346;2023-05-16T00:22:35;18.60;55.50
1614;DHT22;800;48.824;9.346;2023-05-16T00:25:01;18.60;55.40
1614;DHT22;800;48.824;9.346;2023-05-16T00:27:27;18.60;55.40
1614;DHT22;800;48.824;9.346;2023-05-16T00:29:54;18.60;55.40
1614;DHT22;800;48.824;9.346;2023-05-16T00:32:19;18.50;56.10
1614;DHT22;800;48.824;9.346;2023-05-16T00:34:45;18.50;55.40
1614;DHT22;800;48.824;9.346;2023-05-16T00:37:11;18.50;55.50
1614;DHT22;800;48.824;9.346;2023-05-16T00:39:37;18.50;55.60
1614;DHT22;800;48.824;9.346;2023-05-16T00:42:05;18.60;55.90
1614;DHT22;800;48.824;9.346;2023-05-16T00:44:31;18.60;55.60
1614;DHT22;800;48.824;9.346;2023-05-16T00:46:56;18.60;55.60
1614;DHT22;800;48.824;9.346;2023-05-16T00:49:23;18.60;55.30
1614;DHT22;800;48.824;9.346;2023-05-16T00:51:49;18.60;55.10
1614;DHT22;800;48.824;9.346;2023-05-16T00:54:14;18.50;54.90
1614;DHT22;800;48.824;9.346;2023-05-16T00:56:40;18.50;54.90
1614;DHT22;800;48.824;9.346;2023-05-16T00:59:05;18.50;55.10
1614;DHT22;800;48.824;9.346;2023-05-16T01:01:31;18.50;54.90
1614;DHT22;800;48.824;9.346;2023-05-16T01:03:58;18.50;54.80
1614;DHT22;800;48.824;9.346;2023-05-16T01:06:24;18.50;54.90
1614;DHT22;800;48.824;9.346;2023-05-16T01:08:50;18.40;55.00
1614;DHT22;800;48.824;9.346;2023-05-16T01:11:28;18.30;55.10
1614;DHT22;800;48.824;9.346;2023-05-16T01:16:36;18.20;55.50
1614;DHT22;800;48.824;9.346;2023-05-16T01:22:11;18.20;56.00
1614;DHT22;800;48.824;9.346;2023-05-16T01:27:10;18.20;56.00
1614;DHT22;800;48.824;9.346;2023-05-16T01:29:36;18.20;55.70
1614;DHT22;800;48.824;9.346;2023-05-16T01:32:01;18.20;55.70
1614;DHT22;800;48.824;9.346;2023-05-16T01:34:27;18.20;55.70
1614;DHT22;800;48.824;9.346;2023-05-16T01:39:43;18.20;55.40
1614;DHT22;800;48.824;9.346;2023-05-16T01:42:13;18.20;55.20
1614;DHT22;800;48.824;9.346;2023-05-16T01:45:08;18.10;55.00
1614;DHT22;800;48.824;9.346;2023-05-16T01:47:40;18.10;55.10
1614;DHT22;800;48.824;9.346;2023-05-16T01:50:14;18.10;55.30
1614;DHT22;800;48.824;9.346;2023-05-16T01:55:27;18.20;55.40
1614;DHT22;800;48.824;9.346;2023-05-16T01:57:54;18.20;55.30
1614;DHT22;800;48.824;9.346;2023-05-16T02:00:20;18.20;55.00
1614;DHT22;800;48.824;9.346;2023-05-16T02:02:47;18.20;54.90
1614;DHT22;800;48.824;9.346;2023-05-16T02:05:13;18.30;54.90
1614;DHT22;800;48.824;9.346;2023-05-16T02:07:38;18.20;54.80
1614;DHT22;800;48.824;9.346;2023-05-16T02:10:04;18.20;54.50
1614;DHT22;800;48.824;9.346;2023-05-16T02:12:30;18.10;54.40
1614;DHT22;800;48.824;9.346;2023-05-16T02:14:56;18.10;54.60
1614;DHT22;800;48.824;9.346;2023-05-16T02:17:21;18.10;54.60
1614;DHT22;800;48.824;9.346;2023-05-16T02:19:47;18.00;54.40
1614;DHT22;800;48.824;9.346;2023-05-16T02:22:12;17.90;54.30
1614;DHT22;800;48.824;9.346;2023-05-16T02:24:38;17.80;54.60
1614;DHT22;800;48.824;9.346;2023-05-16T02:27:04;17.70;55.30
1614;DHT22;800;48.824;9.346;2023-05-16T02:29:29;17.70;55.40
1614;DHT22;800;48.824;9.346;2023-05-16T02:31:55;17.60;55.60
1614;DHT22;800;48.824;9.346;2023-05-16T02:34:20;17.60;55.70
1614;DHT22;800;48.824;9.346;2023-05-16T02:36:46;17.60;56.00
1614;DHT22;800;48.824;9.346;2023-05-16T02:39:11;17.60;56.00
1614;DHT22;800;48.824;9.346;2023-05-16T02:41:37;17.50;56.00
1614;DHT22;800;48.824;9.346;2023-05-16T02:44:02;17.50;56.50
1614;DHT22;800;48.824;9.346;2023-05-16T02:46:31;17.50;56.80
1614;DHT22;800;48.824;9.346;2023-05-16T02:48:57;17.50;56.70
1614;DHT22;800;48.824;9.346;2023-05-16T02:51:25;17.40;56.50
1614;DHT22;800;48.824;9.346;2023-05-16T02:53:51;17.40;56.80
1614;DHT22;800;48.824;9.346;2023-05-16T02:56:18;17.40;56.70
1614;DHT22;800;48.824;9.346;2023-05-16T02:58:46;17.40;56.80
1614;DHT22;800;48.824;9.346;2023-05-16T03:01:12;17.40;56.90
1614;DHT22;800;48.824;9.346;2023-05-16T03:03:38;17.30;56.90
1614;DHT22;800;48.824;9.346;2023-05-16T03:06:04;17.30;57.10
1614;DHT22;800;48.824;9.346;2023-05-16T03:08:30;17.30;57.10
1614;DHT22;800;48.824;9.346;2023-05-16T03:10:56;17.40;57.00
1614;DHT22;800;48.824;9.346;2023-05-16T03:13:22;17.40;57.00
1614;DHT22;800;48.824;9.346;2023-05-16T03:15:47;17.30;57.10
1614;DHT22;800;48.824;9.346;2023-05-16T03:18:13;17.40;57.40
1614;DHT22;800;48.824;9.346;2023-05-16T03:20:38;17.40;57.40
1614;DHT22;800;48.824;9.346;2023-05-16T03:23:04;17.40;57.30
1614;DHT22;800;48.824;9.346;2023-05-16T03:25:36;17.40;57.20
1614;DHT22;800;48.824;9.346;2023-05-16T03:28:02;17.40;57.50
1614;DHT22;800;48.824;9.346;2023-05-16T03:30:28;17.40;57.60
1614;DHT22;800;48.824;9.346;2023-05-16T03:32:54;17.40;57.50
1614;DHT22;800;48.824;9.346;2023-05-16T03:35:19;17.40;57.20
1614;DHT22;800;48.824;9.346;2023-05-16T03:37:45;17.40;57.20
1614;DHT22;800;48.824;9.346;2023-05-16T03:40:11;17.40;57.20
1614;DHT22;800;48.824;9.346;2023-05-16T03:42:37;17.40;57.20
1614;DHT22;800;48.824;9.346;2023-05-16T03:45:04;17.40;57.20
1614;DHT22;800;48.824;9.346;2023-05-16T03:47:30;17.50;57.30
1614;DHT22;800;48.824;9.346;2023-05-16T03:49:56;17.50;57.30
1614;DHT22;800;48.824;9.346;2023-05-16T03:52:22;17.50;57.40
1614;DHT22;800;48.824;9.346;2023-05-16T03:54:48;17.50;57.50
1614;DHT22;800;48.824;9.346;2023-05-16T03:57:13;17.60;57.60
1614;DHT22;800;48.824;9.346;2023-05-16T03:59:39;17.60;57.70
1614;DHT22;800;48.824;9.346;2023-05-16T04:02:05;17.60;57.80
1614;DHT22;800;48.824;9.346;2023-05-16T04:04:31;17.60;57.90
1614;DHT22;800;48.824;9.346;2023-05-16T04:06:56;17.70;57.90
1614;DHT22;800;48.824;9.346;2023-05-16T04:09:22;17.70;57.40
1614;DHT22;800;48.824;9.346;2023-05-16T04:11:48;17.70;57.40
1614;DHT22;800;48.824;9.346;2023-05-16T04:14:14;17.70;57.80
1614;DHT22;800;48.824;9.346;2023-05-16T04:16:40;17.60;57.30
1614;DHT22;800;48.824;9.346;2023-05-16T04:19:06;17.60;57.60
1614;DHT22;800;48.824;9.346;2023-05-16T04:21:32;17.50;57.70
1614;DHT22;800;48.824;9.346;2023-05-16T04:23:58;17.50;58.00
1614;DHT22;800;48.824;9.346;2023-05-16T04:26:23;17.50;58.60
1614;DHT22;800;48.824;9.346;2023-05-16T04:28:49;17.40;59.00
1614;DHT22;800;48.824;9.346;2023-05-16T04:31:15;17.40;59.20
1614;DHT22;800;48.824;9.346;2023-05-16T04:33:41;17.40;59.30
1614;DHT22;800;48.824;9.346;2023-05-16T04:36:07;17.40;59.40
1614;DHT22;800;48.824;9.346;2023-05-16T04:38:32;17.40;59.50
1614;DHT22;800;48.824;9.346;2023-05-16T04:40:58;17.40;59.40
1614;DHT22;800;48.824;9.346;2023-05-16T04:43:24;17.40;59.40
1614;DHT22;800;48.824;9.346;2023-05-16T04:45:50;17.40;59.70
1614;DHT22;800;48.824;9.346;2023-05-16T04:48:18;17.40;59.80
1614;DHT22;800;48.824;9.346;2023-05-16T04:50:43;17.40;59.90
1614;DHT22;800;48.824;9.346;2023-05-16T04:53:09;17.40;60.10
1614;DHT22;800;48.824;9.346;2023-05-16T04:55:35;17.50;60.40
1614;DHT22;800;48.824;9.346;2023-05-16T04:58:01;17.50;60.60
1614;DHT22;800;48.824;9.346;2023-05-16T05:00:27;17.50;60.50
1614;DHT22;800;48.824;9.346;2023-05-16T05:02:53;17.50;60.90
1614;DHT22;800;48.824;9.346;2023-05-16T05:05:18;17.50;60.30
1614;DHT22;800;48.824;9.346;2023-05-16T05:07:44;17.60;61.00
1614;DHT22;800;48.824;9.346;2023-05-16T05:10:10;17.60;61.30
1614;DHT22;800;48.824;9.346;2023-05-16T05:12:36;17.60;61.40
1614;DHT22;800;48.824;9.346;2023-05-16T05:15:02;17.60;61.40
1614;DHT22;800;48.824;9.346;2023-05-16T05:17:28;17.60;61.40
1614;DHT22;800;48.824;9.346;2023-05-16T05:19:54;17.60;61.40
1614;DHT22;800;48.824;9.346;2023-05-16T05:22:19;17.60;61.90
1614;DHT22;800;48.824;9.346;2023-05-16T05:24:45;17.60;62.20
1614;DHT22;800;48.824;9.346;2023-05-16T05:27:10;17.60;62.80
1614;DHT22;800;48.824;9.346;2023-05-16T05:29:36;17.50;63.30
1614;DHT22;800;48.824;9.346;2023-05-16T05:32:02;17.50;63.70
1614;DHT22;800;48.824;9.346;2023-05-16T05:34:27;17.60;63.80
1614;DHT22;800;48.824;9.346;2023-05-16T05:36:53;17.50;64.20
1614;DHT22;800;48.824;9.346;2023-05-16T05:39:18;17.40;64.40
1614;DHT22;800;48.824;9.346;2023-05-16T05:41:44;17.50;64.60
1614;DHT22;800;48.824;9.346;2023-05-16T05:44:10;17.60;64.30
1614;DHT22;800;48.824;9.346;2023-05-16T05:46:35;17.60;64.30
1614;DHT22;800;48.824;9.346;2023-05-16T05:49:01;17.60;64.10
1614;DHT22;800;48.824;9.346;2023-05-16T05:51:27;17.70;63.80
1614;DHT22;800;48.824;9.346;2023-05-16T05:53:53;17.60;63.90
1614;DHT22;800;48.824;9.346;2023-05-16T05:56:18;17.60;64.20
1614;DHT22;800;48.824;9.346;2023-05-16T05:58:45;17.70;63.90
1614;DHT22;800;48.824;9.346;2023-05-16T06:01:11;17.70;63.70
1614;DHT22;800;48.824;9.346;2023-05-16T06:03:36;17.80;63.30
1614;DHT22;800;48.824;9.346;2023-05-16T06:06:03;17.80;63.20
1614;DHT22;800;48.824;9.346;2023-05-16T06:08:28;17.80;63.40
1614;DHT22;800;48.824;9.346;2023-05-16T06:10:54;17.80;63.60
1614;DHT22;800;48.824;9.346;2023-05-16T06:13:20;17.90;63.40
1614;DHT22;800;48.824;9.346;2023-05-16T06:15:52;17.90;62.90
1614;DHT22;800;48.824;9.346;2023-05-16T06:18:19;17.80;63.10
1614;DHT22;800;48.824;9.346;2023-05-16T06:20:45;17.80;63.60
1614;DHT22;800;48.824;9.346;2023-05-16T06:23:11;17.80;63.60
1614;DHT22;800;48.824;9.346;2023-05-16T06:25:37;17.80;63.50
1614;DHT22;800;48.824;9.346;2023-05-16T06:28:02;17.80;63.50
1614;DHT22;800;48.824;9.346;2023-05-16T06:30:28;17.70;63.90
1614;DHT22;800;48.824;9.346;2023-05-16T06:32:54;17.70;63.80
1614;DHT22;800;48.824;9.346;2023-05-16T06:35:19;17.80;63.80
1614;DHT22;800;48.824;9.346;2023-05-16T06:37:45;17.80;63.90
1614;DHT22;800;48.824;9.346;2023-05-16T06:40:11;17.80;64.30
1614;DHT22;800;48.824;9.346;2023-05-16T06:42:37;17.80;64.00
1614;DHT22;800;48.824;9.346;2023-05-16T06:45:03;18.00;63.80
1614;DHT22;800;48.824;9.346;2023-05-16T06:47:28;18.00;63.80
1614;DHT22;800;48.824;9.346;2023-05-16T06:49:54;18.10;63.30
1614;DHT22;800;48.824;9.346;2023-05-16T06:52:20;18.10;62.80
1614;DHT22;800;48.824;9.346;2023-05-16T06:54:46;18.20;62.40
1614;DHT22;800;48.824;9.346;2023-05-16T06:57:11;18.30;62.30
1614;DHT22;800;48.824;9.346;2023-05-16T06:59:38;18.30;61.80
1614;DHT22;800;48.824;9.346;2023-05-16T07:02:03;18.30;62.00
1614;DHT22;800;48.824;9.346;2023-05-16T07:04:30;18.40;61.80
1614;DHT22;800;48.824;9.346;2023-05-16T07:06:56;18.50;61.70
1614;DHT22;800;48.824;9.346;2023-05-16T07:09:21;18.50;61.40
1614;DHT22;800;48.824;9.346;2023-05-16T07:11:47;18.50;61.50
1614;DHT22;800;48.824;9.346;2023-05-16T07:14:13;18.40;61.20
1614;DHT22;800;48.824;9.346;2023-05-16T07:16:38;18.30;61.00
1614;DHT22;800;48.824;9.346;2023-05-16T07:19:04;18.40;61.60
1614;DHT22;800;48.824;9.346;2023-05-16T07:21:29;18.20;61.20
1614;DHT22;800;48.824;9.346;2023-05-16T07:23:56;18.20;61.60
1614;DHT22;800;48.824;9.346;2023-05-16T07:26:22;18.10;60.80
1614;DHT22;800;48.824;9.346;2023-05-16T07:28:51;18.10;61.30
1614;DHT22;800;48.824;9.346;2023-05-16T07:31:17;18.20;60.60
1614;DHT22;800;48.824;9.346;2023-05-16T07:33:43;18.40;60.30
1614;DHT22;800;48.824;9.346;2023-05-16T07:36:10;18.60;60.10
1614;DHT22;800;48.824;9.346;2023-05-16T07:38:35;18.40;60.60
1614;DHT22;800;48.824;9.346;2023-05-16T07:41:01;18.60;60.30
1614;DHT22;800;48.824;9.346;2023-05-16T07:43:27;18.70;59.20
1614;DHT22;800;48.824;9.346;2023-05-16T07:45:52;18.80;59.00
1614;DHT22;800;48.824;9.346;2023-05-16T07:48:18;18.80;58.20
1614;DHT22;800;48.824;9.346;2023-05-16T07:50:44;18.70;58.10
1614;DHT22;800;48.824;9.346;2023-05-16T07:53:09;18.80;57.70
1614;DHT22;800;48.824;9.346;2023-05-16T07:55:35;18.80;57.60
1614;DHT22;800;48.824;9.346;2023-05-16T07:58:01;18.80;57.30
1614;DHT22;800;48.824;9.346;2023-05-16T08:00:27;18.90;57.20
1614;DHT22;800;48.824;9.346;2023-05-16T08:02:53;18.90;58.80
1614;DHT22;800;48.824;9.346;2023-05-16T08:05:18;19.00;58.70
1614;DHT22;800;48.824;9.346;2023-05-16T08:07:44;19.10;59.00
1614;DHT22;800;48.824;9.346;2023-05-16T08:10:10;19.20;58.60
1614;DHT22;800;48.824;9.346;2023-05-16T08:12:35;19.10;58.90
1614;DHT22;800;48.824;9.346;2023-05-16T08:15:02;19.30;58.40
1614;DHT22;800;48.824;9.346;2023-05-16T08:17:28;19.40;57.90
1614;DHT22;800;48.824;9.346;2023-05-16T08:19:53;19.60;57.90
1614;DHT22;800;48.824;9.346;2023-05-16T08:22:19;19.90;57.30
1614;DHT22;800;48.824;9.346;2023-05-16T08:24:44;20.10;56.30
1614;DHT22;800;48.824;9.346;2023-05-16T08:27:10;20.10;55.50
1614;DHT22;800;48.824;9.346;2023-05-16T08:29:36;20.10;55.70
1614;DHT22;800;48.824;9.346;2023-05-16T08:32:02;20.00;54.50
1614;DHT22;800;48.824;9.346;2023-05-16T08:34:30;19.90;54.50
1614;DHT22;800;48.824;9.346;2023-05-16T08:36:56;19.50;55.40
1614;DHT22;800;48.824;9.346;2023-05-16T08:39:22;19.40;55.60
1614;DHT22;800;48.824;9.346;2023-05-16T08:41:51;19.20;55.90
1614;DHT22;800;48.824;9.346;2023-05-16T08:44:16;19.00;56.40
1614;DHT22;800;48.824;9.346;2023-05-16T08:46:52;19.00;56.60
1614;DHT22;800;48.824;9.346;2023-05-16T08:49:18;19.00;56.40
1614;DHT22;800;48.824;9.346;2023-05-16T08:51:46;19.10;56.20
1614;DHT22;800;48.824;9.346;2023-05-16T08:54:13;18.90;56.00
1614;DHT22;800;48.824;9.346;2023-05-16T08:56:40;18.70;56.50
1614;DHT22;800;48.824;9.346;2023-05-16T08:59:07;18.50;56.70
1614;DHT22;800;48.824;9.346;2023-05-16T09:01:33;18.40;56.60
1614;DHT22;800;48.824;9.346;2023-05-16T09:03:59;18.30;57.00
1614;DHT22;800;48.824;9.346;2023-05-16T09:06:26;18.20;57.20
1614;DHT22;800;48.824;9.346;2023-05-16T09:08:55;18.30;57.30
1614;DHT22;800;48.824;9.346;2023-05-16T09:11:20;18.40;57.40
1614;DHT22;800;48.824;9.346;2023-05-16T09:13:47;18.30;57.50
1614;DHT22;800;48.824;9.346;2023-05-16T09:16:17;18.40;57.50
1614;DHT22;800;48.824;9.346;2023-05-16T09:18:44;18.60;57.40
1614;DHT22;800;48.824;9.346;2023-05-16T09:21:12;18.70;57.40
1614;DHT22;800;48.824;9.346;2023-05-16T09:23:37;18.70;57.20
1614;DHT22;800;48.824;9.346;2023-05-16T09:26:04;18.70;57.70
1614;DHT22;800;48.824;9.346;2023-05-16T09:28:32;18.70;57.90
1614;DHT22;800;48.824;9.346;2023-05-16T09:30:58;18.70;58.10
1614;DHT22;800;48.824;9.346;2023-05-16T09:33:27;18.80;58.20
1614;DHT22;800;48.824;9.346;2023-05-16T09:36:03;18.80;58.60
1614;DHT22;800;48.824;9.346;2023-05-16T09:38:28;18.90;58.20
1614;DHT22;800;48.824;9.346;2023-05-16T09:40:54;18.80;57.70
1614;DHT22;800;48.824;9.346;2023-05-16T09:43:25;18.90;57.90
1614;DHT22;800;48.824;9.346;2023-05-16T09:45:51;19.00;58.10
1614;DHT22;800;48.824;9.346;2023-05-16T09:48:17;19.00;58.10
1614;DHT22;800;48.824;9.346;2023-05-16T09:50:49;19.00;57.90
1614;DHT22;800;48.824;9.346;2023-05-16T09:53:16;19.20;57.50
1614;DHT22;800;48.824;9.346;2023-05-16T09:55:42;19.30;57.30
1614;DHT22;800;48.824;9.346;2023-05-16T09:58:08;19.20;56.90
1614;DHT22;800;48.824;9.346;2023-05-16T10:00:33;19.10;56.70
1614;DHT22;800;48.824;9.346;2023-05-16T10:03:00;19.10;57.00
1614;DHT22;800;48.824;9.346;2023-05-16T10:05:27;19.10;56.90
1614;DHT22;800;48.824;9.346;2023-05-16T10:07:55;19.10;57.30
1614;DHT22;800;48.824;9.346;2023-05-16T10:10:21;19.10;57.10
1614;DHT22;800;48.824;9.346;2023-05-16T10:12:47;19.10;57.30
1614;DHT22;800;48.824;9.346;2023-05-16T10:15:13;19.00;57.30
1614;DHT22;800;48.824;9.346;2023-05-16T10:17:42;19.10;57.30
1614;DHT22;800;48.824;9.346;2023-05-16T10:20:10;19.10;57.00
1614;DHT22;800;48.824;9.346;2023-05-16T10:22:42;19.00;57.20
1614;DHT22;800;48.824;9.346;2023-05-16T10:27:37;18.90;58.00
1614;DHT22;800;48.824;9.346;2023-05-16T10:30:05;18.90;57.80
1614;DHT22;800;48.824;9.346;2023-05-16T10:32:32;19.00;58.00
1614;DHT22;800;48.824;9.346;2023-05-16T10:34:58;19.00;57.80
1614;DHT22;800;48.824;9.346;2023-05-16T10:37:29;18.80;58.20
1614;DHT22;800;48.824;9.346;2023-05-16T10:39:56;18.80;57.90
1614;DHT22;800;48.824;9.346;2023-05-16T10:42:22;19.00;58.70
1614;DHT22;800;48.824;9.346;2023-05-16T10:44:47;19.20;58.30
1614;DHT22;800;48.824;9.346;2023-05-16T10:47:18;19.40;57.80
1614;DHT22;800;48.824;9.346;2023-05-16T10:49:44;19.60;57.40
1614;DHT22;800;48.824;9.346;2023-05-16T10:52:11;19.70;56.70
1614;DHT22;800;48.824;9.346;2023-05-16T10:54:39;19.80;56.70
1614;DHT22;800;48.824;9.346;2023-05-16T10:57:11;19.90;57.70
1614;DHT22;800;48.824;9.346;2023-05-16T10:59:43;20.00;56.80
1614;DHT22;800;48.824;9.346;2023-05-16T11:02:30;20.10;56.00
1614;DHT22;800;48.824;9.346;2023-05-16T11:05:00;20.20;55.90
1614;DHT22;800;48.824;9.346;2023-05-16T11:07:31;20.30;55.80
1614;DHT22;800;48.824;9.346;2023-05-16T11:10:16;20.20;55.30
1614;DHT22;800;48.824;9.346;2023-05-16T11:12:49;20.30;55.70
1614;DHT22;800;48.824;9.346;2023-05-16T11:15:26;20.30;55.20
1614;DHT22;800;48.824;9.346;2023-05-16T11:18:15;20.40;54.80
1614;DHT22;800;48.824;9.346;2023-05-16T11:20:41;20.30;54.60
1614;DHT22;800;48.824;9.346;2023-05-16T11:23:17;20.20;54.50
1614;DHT22;800;48.824;9.346;2023-05-16T11:25:45;20.30;54.90
1614;DHT22;800;48.824;9.346;2023-05-16T11:28:14;20.30;55.40
1614;DHT22;800;48.824;9.346;2023-05-16T11:31:01;20.40;54.50
1614;DHT22;800;48.824;9.346;2023-05-16T11:33:30;20.40;54.50
1614;DHT22;800;48.824;9.346;2023-05-16T11:36:07;20.30;54.70
1614;DHT22;800;48.824;9.346;2023-05-16T11:38:33;20.10;56.10
1614;DHT22;800;48.824;9.346;2023-05-16T11:41:06;20.00;56.00
1614;DHT22;800;48.824;9.346;2023-05-16T11:43:40;20.00;56.00
1614;DHT22;800;48.824;9.346;2023-05-16T11:46:10;19.90;56.30
1614;DHT22;800;48.824;9.346;2023-05-16T11:48:35;19.90;56.50
1614;DHT22;800;48.824;9.346;2023-05-16T11:51:01;19.90;56.50
1614;DHT22;800;48.824;9.346;2023-05-16T11:53:27;19.80;56.60
1614;DHT22;800;48.824;9.346;2023-05-16T11:55:53;19.90;56.20
1614;DHT22;800;48.824;9.346;2023-05-16T11:58:19;19.80;56.30
1614;DHT22;800;48.824;9.346;2023-05-16T12:00:48;19.60;56.70
1614;DHT22;800;48.824;9.346;2023-05-16T12:03:14;19.30;56.20
1614;DHT22;800;48.824;9.346;2023-05-16T12:05:52;19.30;56.40
1614;DHT22;800;48.824;9.346;2023-05-16T12:08:18;19.20;56.40
1614;DHT22;800;48.824;9.346;2023-05-16T12:10:47;19.00;57.10
1614;DHT22;800;48.824;9.346;2023-05-16T12:13:13;19.00;57.30
1614;DHT22;800;48.824;9.346;2023-05-16T12:15:40;18.90;57.10
1614;DHT22;800;48.824;9.346;2023-05-16T12:18:06;18.90;57.20
1614;DHT22;800;48.824;9.346;2023-05-16T12:20:32;19.00;57.20
1614;DHT22;800;48.824;9.346;2023-05-16T12:22:57;19.00;56.80
1614;DHT22;800;48.824;9.346;2023-05-16T12:25:27;18.90;56.80
1614;DHT22;800;48.824;9.346;2023-05-16T12:27:54;18.80;57.00
1614;DHT22;800;48.824;9.346;2023-05-16T12:30:23;19.00;57.00
1614;DHT22;800;48.824;9.346;2023-05-16T12:32:55;19.10;56.90
1614;DHT22;800;48.824;9.346;2023-05-16T12:35:22;19.10;56.50
1614;DHT22;800;48.824;9.346;2023-05-16T12:37:48;19.00;56.00
1614;DHT22;800;48.824;9.346;2023-05-16T12:40:16;18.80;57.00
1614;DHT22;800;48.824;9.346;2023-05-16T12:42:48;18.90;57.40
1614;DHT22;800;48.824;9.346;2023-05-16T12:45:15;19.00;56.50
1614;DHT22;800;48.824;9.346;2023-05-16T12:47:44;19.10;56.20
1614;DHT22;800;48.824;9.346;2023-05-16T12:50:14;19.10;55.70
1614;DHT22;800;48.824;9.346;2023-05-16T12:52:53;19.10;55.60
1614;DHT22;800;48.824;9.346;2023-05-16T12:55:21;18.90;55.60
1614;DHT22;800;48.824;9.346;2023-05-16T12:57:48;19.10;55.60
1614;DHT22;800;48.824;9.346;2023-05-16T13:00:15;19.30;55.10
1614;DHT22;800;48.824;9.346;2023-05-16T13:02:43;19.40;54.80
1614;DHT22;800;48.824;9.346;2023-05-16T13:05:09;19.50;55.00
1614;DHT22;800;48.824;9.346;2023-05-16T13:07:35;19.50;55.00
1614;DHT22;800;48.824;9.346;2023-05-16T13:10:01;19.50;55.20
1614;DHT22;800;48.824;9.346;2023-05-16T13:12:28;19.20;55.10
1614;DHT22;800;48.824;9.346;2023-05-16T13:14:54;19.00;55.80
1614;DHT22;800;48.824;9.346;2023-05-16T13:17:20;18.90;56.40
1614;DHT22;800;48.824;9.346;2023-05-16T13:19:45;18.90;56.50
1614;DHT22;800;48.824;9.346;2023-05-16T13:22:11;19.00;55.90
1614;DHT22;800;48.824;9.346;2023-05-16T13:24:37;19.20;55.60
1614;DHT22;800;48.824;9.346;2023-05-16T13:27:02;19.10;55.20
1614;DHT22;800;48.824;9.346;2023-05-16T13:29:28;19.20;55.10
1614;DHT22;800;48.824;9.346;2023-05-16T13:31:53;19.20;54.50
1614;DHT22;800;48.824;9.346;2023-05-16T13:34:19;19.20;54.60
1614;DHT22;800;48.824;9.346;2023-05-16T13:36:45;19.30;54.60
1614;DHT22;800;48.824;9.346;2023-05-16T13:39:12;19.20;54.50
1614;DHT22;800;48.824;9.346;2023-05-16T13:41:37;19.20;55.00
1614;DHT22;800;48.824;9.346;2023-05-16T13:44:04;19.10;54.90
1614;DHT22;800;48.824;9.346;2023-05-16T13:46:30;18.80;55.30
1614;DHT22;800;48.824;9.346;2023-05-16T13:48:56;18.80;55.20
1614;DHT22;800;48.824;9.346;2023-05-16T13:51:21;18.90;54.80
1614;DHT22;800;48.824;9.346;2023-05-16T13:53:47;18.90;54.90
1614;DHT22;800;48.824;9.346;2023-05-16T13:56:12;19.00;54.90
1614;DHT22;800;48.824;9.346;2023-05-16T13:58:38;18.80;55.20
1614;DHT22;800;48.824;9.346;2023-05-16T14:01:04;18.70;55.80
1614;DHT22;800;48.824;9.346;2023-05-16T14:03:29;18.80;55.80
1614;DHT22;800;48.824;9.346;2023-05-16T14:05:56;18.90;55.00
1614;DHT22;800;48.824;9.346;2023-05-16T14:08:23;18.90;55.20
1614;DHT22;800;48.824;9.346;2023-05-16T14:10:48;19.10;54.90
1614;DHT22;800;48.824;9.346;2023-05-16T14:13:14;19.00;54.80
1614;DHT22;800;48.824;9.346;2023-05-16T14:15:39;18.90;54.90
1614;DHT22;800;48.824;9.346;2023-05-16T14:18:05;18.80;55.30
1614;DHT22;800;48.824;9.346;2023-05-16T14:20:31;18.80;55.80
1614;DHT22;800;48.824;9.346;2023-05-16T14:22:57;18.90;55.30
1614;DHT22;800;48.824;9.346;2023-05-16T14:25:22;18.90;55.10
1614;DHT22;800;48.824;9.346;2023-05-16T14:27:48;18.80;54.70
1614;DHT22;800;48.824;9.346;2023-05-16T14:30:15;18.80;54.90
1614;DHT22;800;48.824;9.346;2023-05-16T14:32:41;19.00;54.90
1614;DHT22;800;48.824;9.346;2023-05-16T14:35:07;19.00;55.30
1614;DHT22;800;48.824;9.346;2023-05-16T14:37:34;18.90;54.90
1614;DHT22;800;48.824;9.346;2023-05-16T14:39:59;19.00;55.00
1614;DHT22;800;48.824;9.346;2023-05-16T14:42:25;19.00;55.00
1614;DHT22;800;48.824;9.346;2023-05-16T14:44:54;19.00;54.50
1614;DHT22;800;48.824;9.346;2023-05-16T14:47:19;19.20;54.20
1614;DHT22;800;48.824;9.346;2023-05-16T14:49:45;19.20;54.40
1614;DHT22;800;48.824;9.346;2023-05-16T14:52:10;19.00;54.10
1614;DHT22;800;48.824;9.346;2023-05-16T14:54:36;19.00;54.00
1614;DHT22;800;48.824;9.346;2023-05-16T14:57:01;19.10;54.10
1614;DHT22;800;48.824;9.346;2023-05-16T14:59:28;19.30;53.70
1614;DHT22;800;48.824;9.346;2023-05-16T15:01:54;19.50;53.00
1614;DHT22;800;48.824;9.346;2023-05-16T15:04:20;19.60;52.90
1614;DHT22;800;48.824;9.346;2023-05-16T15:06:45;19.60;52.70
1614;DHT22;800;48.824;9.346;2023-05-16T15:09:11;19.70;52.60
1614;DHT22;800;48.824;9.346;2023-05-16T15:11:37;19.70;52.40
1614;DHT22;800;48.824;9.346;2023-05-16T15:14:02;19.70;51.90
1614;DHT22;800;48.824;9.346;2023-05-16T15:16:29;19.70;51.90
1614;DHT22;800;48.824;9.346;2023-05-16T15:18:55;19.70;52.00
1614;DHT22;800;48.824;9.346;2023-05-16T15:21:20;19.80;51.90
1614;DHT22;800;48.824;9.346;2023-05-16T15:23:46;19.80;51.40
1614;DHT22;800;48.824;9.346;2023-05-16T15:26:12;19.70;50.40
1614;DHT22;800;48.824;9.346;2023-05-16T15:28:37;19.50;50.40
1614;DHT22;800;48.824;9.346;2023-05-16T15:31:03;19.30;50.90
1614;DHT22;800;48.824;9.346;2023-05-16T15:33:29;19.40;51.10
1614;DHT22;800;48.824;9.346;2023-05-16T15:35:55;19.20;50.90
1614;DHT22;800;48.824;9.346;2023-05-16T15:38:22;19.20;51.20
1614;DHT22;800;48.824;9.346;2023-05-16T15:40:47;19.20;51.60
1614;DHT22;800;48.824;9.346;2023-05-16T15:43:13;19.30;51.00
1614;DHT22;800;48.824;9.346;2023-05-16T15:45:38;19.30;51.20
1614;DHT22;800;48.824;9.346;2023-05-16T15:48:04;19.30;51.40
1614;DHT22;800;48.824;9.346;2023-05-16T15:50:30;19.40;51.60
1614;DHT22;800;48.824;9.346;2023-05-16T15:52:55;19.40;51.00
1614;DHT22;800;48.824;9.346;2023-05-16T15:55:22;19.40;51.20
1614;DHT22;800;48.824;9.346;2023-05-16T15:57:48;19.50;51.00
1614;DHT22;800;48.824;9.346;2023-05-16T16:00:14;19.50;50.90
1614;DHT22;800;48.824;9.346;2023-05-16T16:02:40;19.50;50.60
1614;DHT22;800;48.824;9.346;2023-05-16T16:05:07;19.30;51.00
1614;DHT22;800;48.824;9.346;2023-05-16T16:07:33;19.30;50.40
1614;DHT22;800;48.824;9.346;2023-05-16T16:10:05;19.40;50.40
1614;DHT22;800;48.824;9.346;2023-05-16T16:12:40;19.30;50.10
1614;DHT22;800;48.824;9.346;2023-05-16T16:15:11;19.20;50.60
1614;DHT22;800;48.824;9.346;2023-05-16T16:17:49;19.30;50.10
1614;DHT22;800;48.824;9.346;2023-05-16T16:20:14;19.40;49.40
1614;DHT22;800;48.824;9.346;2023-05-16T16:22:40;19.30;49.80
1614;DHT22;800;48.824;9.346;2023-05-16T16:25:08;19.10;49.60
1614;DHT22;800;48.824;9.346;2023-05-16T16:27:37;19.00;49.50
1614;DHT22;800;48.824;9.346;2023-05-16T16:30:03;18.80;49.00